TAP247 LPPT-KLAX
Flight info
| Callsign | TAP247 |
|---|---|
| Flight time | N/A |
| Altitude | 34000 |
| Route | ELNUB DCT ARMED/M081F340 DCT 43N015W 48N020W 53N030W 55N040W 56N050W DCT CUDDY/N0477F340 DCT MCKEE/N0478F360 DCT CHARN DCT 5230N09000W/N0469F380 DCT OTLUR DCT MOT DCT BOY DCT MLF J107 BLD DCT HAKMN ANJLL4 |
| Aircraft | A339/H-SADE1E2E3GHIJ3J5M1P2RWXY/LB2D1 |
Departure
| Time | N/A |
|---|---|
| Airport | Lisbon Humberto Delgado Airport (LPPT) |
Arrival
| Time | 2026-04-21 20:32 |
|---|---|
| Airport | Los Angeles International Airport (KLAX) |
| Time | Latitude | Longitude | Altitude | Speed | Heading |
|---|---|---|---|---|---|
| 2026-04-21 17:34 | 48.24383 | -101.31401 | 37914 ft | 423 kts | 238° |
| 2026-04-21 17:34 | 48.22434 | -101.34723 | 37916 ft | 425 kts | 236° |
| 2026-04-21 17:35 | 48.18495 | -101.41297 | 37916 ft | 424 kts | 237° |
| 2026-04-21 17:35 | 48.14574 | -101.47827 | 37918 ft | 425 kts | 237° |
| 2026-04-21 17:36 | 48.10621 | -101.54394 | 37916 ft | 425 kts | 236° |
| 2026-04-21 17:36 | 48.06673 | -101.60925 | 37914 ft | 424 kts | 236° |
| 2026-04-21 17:37 | 48.02685 | -101.67509 | 37919 ft | 425 kts | 235° |
| 2026-04-21 17:37 | 47.98718 | -101.74039 | 37916 ft | 423 kts | 235° |
| 2026-04-21 17:38 | 47.94779 | -101.80508 | 37915 ft | 424 kts | 235° |
| 2026-04-21 17:38 | 47.90813 | -101.87008 | 37913 ft | 424 kts | 235° |
| 2026-04-21 17:39 | 47.86803 | -101.93559 | 37902 ft | 424 kts | 235° |
| 2026-04-21 17:39 | 47.82827 | -102.00042 | 37894 ft | 424 kts | 235° |
| 2026-04-21 17:40 | 47.78851 | -102.06506 | 37890 ft | 424 kts | 235° |
| 2026-04-21 17:40 | 47.74875 | -102.12956 | 37890 ft | 423 kts | 235° |
| 2026-04-21 17:41 | 47.70905 | -102.19384 | 37891 ft | 424 kts | 234° |
| 2026-04-21 17:41 | 47.66910 | -102.25831 | 37892 ft | 424 kts | 234° |
| 2026-04-21 17:42 | 47.62918 | -102.32258 | 37896 ft | 425 kts | 234° |
| 2026-04-21 17:42 | 47.58927 | -102.38669 | 37892 ft | 424 kts | 234° |
| 2026-04-21 17:43 | 47.54940 | -102.45059 | 37893 ft | 424 kts | 234° |
| 2026-04-21 17:43 | 47.50954 | -102.51430 | 37888 ft | 424 kts | 234° |
| 2026-04-21 17:44 | 47.46949 | -102.57818 | 37887 ft | 424 kts | 234° |
| 2026-04-21 17:44 | 47.42957 | -102.64171 | 37891 ft | 423 kts | 234° |
| 2026-04-21 17:45 | 47.38953 | -102.70525 | 37894 ft | 423 kts | 233° |
| 2026-04-21 17:45 | 47.34946 | -102.76871 | 37892 ft | 424 kts | 233° |
| 2026-04-21 17:46 | 47.30921 | -102.83231 | 37897 ft | 424 kts | 233° |
| 2026-04-21 17:46 | 47.26924 | -102.89527 | 37898 ft | 423 kts | 233° |
| 2026-04-21 17:47 | 47.22916 | -102.95830 | 37899 ft | 423 kts | 233° |
| 2026-04-21 17:47 | 47.18889 | -103.02143 | 37900 ft | 423 kts | 233° |
| 2026-04-21 17:48 | 47.14896 | -103.08393 | 37894 ft | 423 kts | 233° |
| 2026-04-21 17:48 | 47.10868 | -103.14681 | 37893 ft | 423 kts | 232° |
| 2026-04-21 17:49 | 47.06841 | -103.20953 | 37895 ft | 423 kts | 233° |
| 2026-04-21 17:49 | 47.02804 | -103.27224 | 37893 ft | 423 kts | 232° |
| 2026-04-21 17:50 | 46.98790 | -103.33446 | 37897 ft | 423 kts | 232° |
| 2026-04-21 17:50 | 46.94748 | -103.39696 | 37899 ft | 423 kts | 232° |
| 2026-04-21 17:51 | 46.90704 | -103.45938 | 37899 ft | 423 kts | 232° |
| 2026-04-21 17:51 | 46.86606 | -103.52243 | 37893 ft | 423 kts | 232° |
| 2026-04-21 17:52 | 46.82556 | -103.58460 | 37894 ft | 423 kts | 232° |
| 2026-04-21 17:52 | 46.78508 | -103.64660 | 37890 ft | 422 kts | 232° |
| 2026-04-21 17:53 | 46.74407 | -103.70931 | 37896 ft | 422 kts | 231° |
| 2026-04-21 17:53 | 46.70360 | -103.77102 | 37900 ft | 422 kts | 231° |
| 2026-04-21 17:54 | 46.66300 | -103.83276 | 37902 ft | 422 kts | 231° |
| 2026-04-21 17:54 | 46.62248 | -103.89427 | 37908 ft | 422 kts | 231° |
| 2026-04-21 17:55 | 46.58196 | -103.95563 | 37910 ft | 423 kts | 231° |
| 2026-04-21 17:55 | 46.54125 | -104.01714 | 37913 ft | 423 kts | 231° |
| 2026-04-21 17:56 | 46.50072 | -104.07822 | 37917 ft | 422 kts | 231° |
| 2026-04-21 17:56 | 46.45996 | -104.13950 | 37923 ft | 422 kts | 231° |
| 2026-04-21 17:57 | 46.41930 | -104.20054 | 37926 ft | 422 kts | 231° |
| 2026-04-21 17:57 | 46.37852 | -104.26157 | 37918 ft | 422 kts | 231° |
| 2026-04-21 17:58 | 46.33792 | -104.32220 | 37917 ft | 422 kts | 231° |
| 2026-04-21 17:58 | 46.29688 | -104.38339 | 37925 ft | 422 kts | 230° |
| 2026-04-21 17:59 | 46.25601 | -104.44412 | 37929 ft | 421 kts | 230° |
| 2026-04-21 17:59 | 46.21551 | -104.50419 | 37934 ft | 421 kts | 230° |
| 2026-04-21 18:00 | 46.17444 | -104.56496 | 37934 ft | 421 kts | 230° |
| 2026-04-21 18:00 | 46.13383 | -104.62491 | 37932 ft | 421 kts | 230° |
| 2026-04-21 18:01 | 46.09250 | -104.68582 | 37936 ft | 420 kts | 230° |
| 2026-04-21 18:01 | 46.05165 | -104.74587 | 37932 ft | 420 kts | 229° |
| 2026-04-21 18:02 | 46.01108 | -104.80540 | 37932 ft | 420 kts | 229° |
| 2026-04-21 18:02 | 45.97027 | -104.86510 | 37935 ft | 419 kts | 229° |
| 2026-04-21 18:03 | 45.92931 | -104.92492 | 37944 ft | 419 kts | 229° |
| 2026-04-21 18:03 | 45.88821 | -104.98478 | 37951 ft | 419 kts | 229° |
| 2026-04-21 18:04 | 45.84673 | -105.04509 | 37953 ft | 419 kts | 229° |
| 2026-04-21 18:04 | 45.80593 | -105.10426 | 37953 ft | 419 kts | 229° |
| 2026-04-21 18:05 | 45.76477 | -105.16382 | 37958 ft | 419 kts | 229° |
| 2026-04-21 18:05 | 45.72401 | -105.22266 | 37962 ft | 420 kts | 229° |
| 2026-04-21 18:06 | 45.68280 | -105.28205 | 37961 ft | 420 kts | 229° |
| 2026-04-21 18:06 | 45.64161 | -105.34126 | 37964 ft | 420 kts | 229° |
| 2026-04-21 18:07 | 45.60068 | -105.39999 | 37966 ft | 421 kts | 229° |
| 2026-04-21 18:07 | 45.55902 | -105.45959 | 37965 ft | 422 kts | 229° |
| 2026-04-21 18:08 | 45.51774 | -105.51856 | 37962 ft | 422 kts | 229° |
| 2026-04-21 18:08 | 45.47613 | -105.57783 | 37963 ft | 421 kts | 229° |
| 2026-04-21 18:09 | 45.43482 | -105.63654 | 37962 ft | 422 kts | 229° |
| 2026-04-21 18:09 | 45.38569 | -105.70624 | 37964 ft | 422 kts | 228° |
| 2026-04-21 18:10 | 45.35119 | -105.75508 | 37966 ft | 421 kts | 227° |
| 2026-04-21 18:10 | 45.30942 | -105.81406 | 37966 ft | 421 kts | 227° |
| 2026-04-21 18:11 | 45.26117 | -105.88206 | 37975 ft | 421 kts | 227° |
| 2026-04-21 18:11 | 45.21946 | -105.94067 | 37983 ft | 421 kts | 227° |
| 2026-04-21 18:12 | 45.18462 | -105.98956 | 37990 ft | 421 kts | 227° |
| 2026-04-21 18:12 | 45.13535 | -106.05850 | 37996 ft | 423 kts | 227° |
| 2026-04-21 18:13 | 45.10032 | -106.10744 | 37996 ft | 422 kts | 227° |
| 2026-04-21 18:13 | 45.05143 | -106.17557 | 37998 ft | 423 kts | 227° |
| 2026-04-21 18:14 | 44.99526 | -106.25369 | 38006 ft | 423 kts | 227° |
| 2026-04-21 18:15 | 44.95347 | -106.31161 | 38009 ft | 422 kts | 227° |
| 2026-04-21 18:15 | 44.91156 | -106.36954 | 38012 ft | 422 kts | 227° |
| 2026-04-21 18:16 | 44.86198 | -106.43798 | 38018 ft | 422 kts | 227° |
| 2026-04-21 18:16 | 44.82684 | -106.48638 | 38031 ft | 423 kts | 227° |
| 2026-04-21 18:17 | 44.78487 | -106.54407 | 38037 ft | 423 kts | 227° |
| 2026-04-21 18:17 | 44.74262 | -106.60203 | 38036 ft | 423 kts | 227° |
| 2026-04-21 18:18 | 44.70047 | -106.65971 | 38040 ft | 422 kts | 226° |
| 2026-04-21 18:18 | 44.65783 | -106.71793 | 38049 ft | 423 kts | 226° |
| 2026-04-21 18:19 | 44.60836 | -106.78529 | 38053 ft | 423 kts | 226° |
| 2026-04-21 18:19 | 44.56639 | -106.84236 | 38086 ft | 422 kts | 226° |
| 2026-04-21 18:20 | 44.53115 | -106.89017 | 38124 ft | 421 kts | 226° |
| 2026-04-21 18:20 | 44.48186 | -106.95689 | 38154 ft | 422 kts | 226° |
| 2026-04-21 18:21 | 44.43965 | -107.01389 | 38196 ft | 421 kts | 226° |
| 2026-04-21 18:21 | 44.39754 | -107.07064 | 38201 ft | 422 kts | 226° |
| 2026-04-21 18:22 | 44.35513 | -107.12769 | 38203 ft | 422 kts | 226° |
| 2026-04-21 18:22 | 44.31996 | -107.17489 | 38211 ft | 422 kts | 226° |
| 2026-04-21 18:23 | 44.27039 | -107.24127 | 38215 ft | 422 kts | 226° |
| 2026-04-21 18:23 | 44.22796 | -107.29800 | 38223 ft | 423 kts | 226° |
| 2026-04-21 18:24 | 44.18528 | -107.35490 | 38209 ft | 422 kts | 225° |
| 2026-04-21 18:24 | 44.14283 | -107.41138 | 38196 ft | 422 kts | 226° |
| 2026-04-21 18:25 | 44.10041 | -107.46773 | 38208 ft | 424 kts | 225° |
| 2026-04-21 18:25 | 44.07890 | -107.49625 | 38457 ft | 424 kts | 225° |
| 2026-04-21 18:25 | 44.05773 | -107.52427 | 38789 ft | 423 kts | 225° |
| 2026-04-21 18:25 | 44.03640 | -107.55248 | 39073 ft | 422 kts | 225° |
| 2026-04-21 18:26 | 44.01527 | -107.58040 | 39306 ft | 422 kts | 225° |
| 2026-04-21 18:26 | 43.99394 | -107.60856 | 39512 ft | 422 kts | 225° |
| 2026-04-21 18:26 | 43.97278 | -107.63645 | 39710 ft | 422 kts | 225° |
| 2026-04-21 18:26 | 43.95106 | -107.66507 | 39937 ft | 422 kts | 225° |
| 2026-04-21 18:27 | 43.92934 | -107.69364 | 40080 ft | 423 kts | 225° |
| 2026-04-21 18:27 | 43.88627 | -107.75024 | 40062 ft | 422 kts | 225° |
| 2026-04-21 18:28 | 43.85000 | -107.79783 | 40062 ft | 422 kts | 225° |
| 2026-04-21 18:28 | 43.80027 | -107.86292 | 40052 ft | 422 kts | 225° |
| 2026-04-21 18:29 | 43.75769 | -107.91852 | 40055 ft | 423 kts | 225° |
| 2026-04-21 18:29 | 43.71498 | -107.97417 | 40074 ft | 423 kts | 224° |
| 2026-04-21 18:30 | 43.67220 | -108.02981 | 40086 ft | 423 kts | 224° |
| 2026-04-21 18:30 | 43.62935 | -108.08541 | 40100 ft | 423 kts | 224° |
| 2026-04-21 18:31 | 43.58668 | -108.14068 | 40104 ft | 422 kts | 224° |
| 2026-04-21 18:31 | 43.54389 | -108.19595 | 40113 ft | 421 kts | 224° |
| 2026-04-21 18:32 | 43.50129 | -108.25085 | 40123 ft | 421 kts | 224° |
| 2026-04-21 18:32 | 43.45757 | -108.30448 | 40137 ft | 422 kts | 220° |
| 2026-04-21 18:33 | 43.41081 | -108.35305 | 40141 ft | 423 kts | 218° |
| 2026-04-21 18:33 | 43.36342 | -108.40132 | 40144 ft | 424 kts | 218° |
| 2026-04-21 18:34 | 43.31619 | -108.44928 | 40144 ft | 425 kts | 218° |
| 2026-04-21 18:34 | 43.26857 | -108.49750 | 40145 ft | 425 kts | 217° |
| 2026-04-21 18:35 | 43.22923 | -108.53725 | 40143 ft | 425 kts | 217° |
| 2026-04-21 18:35 | 43.17377 | -108.59314 | 40136 ft | 425 kts | 217° |
| 2026-04-21 18:36 | 43.12632 | -108.64086 | 40140 ft | 425 kts | 217° |
| 2026-04-21 18:36 | 43.07837 | -108.68900 | 40145 ft | 425 kts | 217° |
| 2026-04-21 18:37 | 43.03075 | -108.73669 | 40151 ft | 427 kts | 217° |
| 2026-04-21 18:37 | 42.98293 | -108.78451 | 40149 ft | 429 kts | 217° |
| 2026-04-21 18:38 | 42.93499 | -108.83233 | 40158 ft | 429 kts | 216° |
| 2026-04-21 18:38 | 42.88654 | -108.88060 | 40170 ft | 429 kts | 216° |
| 2026-04-21 18:39 | 42.83811 | -108.92873 | 40201 ft | 429 kts | 216° |
| 2026-04-21 18:39 | 42.79010 | -108.97633 | 40233 ft | 428 kts | 216° |
| 2026-04-21 18:40 | 42.74215 | -109.02383 | 40256 ft | 427 kts | 216° |
| 2026-04-21 18:40 | 42.70226 | -109.06324 | 40268 ft | 426 kts | 216° |
| 2026-04-21 18:41 | 42.64627 | -109.11848 | 40272 ft | 426 kts | 216° |
| 2026-04-21 18:41 | 42.59848 | -109.16551 | 40271 ft | 426 kts | 216° |
| 2026-04-21 18:42 | 42.55048 | -109.21265 | 40268 ft | 425 kts | 216° |
| 2026-04-21 18:42 | 42.50276 | -109.25944 | 40264 ft | 425 kts | 216° |
| 2026-04-21 18:43 | 42.45481 | -109.30634 | 40254 ft | 425 kts | 216° |
| 2026-04-21 18:43 | 42.40731 | -109.35274 | 40245 ft | 425 kts | 216° |
| 2026-04-21 18:44 | 42.35925 | -109.39960 | 40234 ft | 424 kts | 216° |
| 2026-04-21 18:44 | 42.31160 | -109.44596 | 40226 ft | 424 kts | 216° |
| 2026-04-21 18:45 | 42.26414 | -109.49204 | 40220 ft | 424 kts | 216° |
| 2026-04-21 18:45 | 42.21645 | -109.53826 | 40214 ft | 423 kts | 216° |
| 2026-04-21 18:46 | 42.16837 | -109.58478 | 40211 ft | 424 kts | 216° |
| 2026-04-21 18:46 | 42.12073 | -109.63077 | 40209 ft | 423 kts | 216° |
| 2026-04-21 18:47 | 42.07257 | -109.67717 | 40206 ft | 423 kts | 215° |
| 2026-04-21 18:47 | 42.02475 | -109.72316 | 40199 ft | 423 kts | 215° |
| 2026-04-21 18:48 | 41.97696 | -109.76906 | 40188 ft | 422 kts | 214° |
| 2026-04-21 18:48 | 41.92945 | -109.81458 | 40181 ft | 422 kts | 214° |
| 2026-04-21 18:49 | 41.88166 | -109.86029 | 40187 ft | 423 kts | 214° |
| 2026-04-21 18:49 | 41.84151 | -109.89864 | 40185 ft | 423 kts | 214° |
| 2026-04-21 18:50 | 41.78573 | -109.95180 | 40191 ft | 424 kts | 214° |
| 2026-04-21 18:50 | 41.73745 | -109.99771 | 40189 ft | 425 kts | 214° |
| 2026-04-21 18:51 | 41.68949 | -110.04324 | 40186 ft | 425 kts | 214° |
| 2026-04-21 18:51 | 41.64142 | -110.08878 | 40193 ft | 424 kts | 214° |
| 2026-04-21 18:52 | 41.59341 | -110.13418 | 40203 ft | 424 kts | 214° |
| 2026-04-21 18:52 | 41.54538 | -110.17954 | 40218 ft | 423 kts | 214° |
| 2026-04-21 18:53 | 41.49735 | -110.22480 | 40205 ft | 423 kts | 214° |
| 2026-04-21 18:53 | 41.44949 | -110.26982 | 40203 ft | 422 kts | 214° |
| 2026-04-21 18:54 | 41.40161 | -110.31476 | 40206 ft | 423 kts | 214° |
| 2026-04-21 18:54 | 41.35391 | -110.35945 | 40210 ft | 422 kts | 214° |
| 2026-04-21 18:55 | 41.31381 | -110.39695 | 40214 ft | 421 kts | 214° |
| 2026-04-21 18:55 | 41.25818 | -110.44891 | 40219 ft | 421 kts | 214° |
| 2026-04-21 18:56 | 41.21017 | -110.49365 | 40233 ft | 421 kts | 214° |
| 2026-04-21 18:56 | 41.16239 | -110.53812 | 40241 ft | 421 kts | 214° |
| 2026-04-21 18:57 | 41.11426 | -110.58279 | 40262 ft | 421 kts | 214° |
| 2026-04-21 18:57 | 41.06641 | -110.62714 | 40267 ft | 421 kts | 214° |
| 2026-04-21 18:58 | 41.01827 | -110.67167 | 40270 ft | 419 kts | 213° |
| 2026-04-21 18:58 | 40.97056 | -110.71571 | 40271 ft | 420 kts | 213° |
| 2026-04-21 18:59 | 40.92264 | -110.75990 | 40268 ft | 419 kts | 213° |
| 2026-04-21 18:59 | 40.87460 | -110.80411 | 40264 ft | 419 kts | 213° |
| 2026-04-21 19:00 | 40.82668 | -110.84814 | 40265 ft | 419 kts | 213° |
| 2026-04-21 19:00 | 40.77890 | -110.89194 | 40266 ft | 419 kts | 213° |
| 2026-04-21 19:01 | 40.73129 | -110.93552 | 40261 ft | 419 kts | 213° |
| 2026-04-21 19:01 | 40.68333 | -110.97933 | 40267 ft | 420 kts | 213° |
| 2026-04-21 19:02 | 40.63539 | -111.02306 | 40263 ft | 419 kts | 213° |
| 2026-04-21 19:02 | 40.58734 | -111.06679 | 40272 ft | 419 kts | 213° |
| 2026-04-21 19:03 | 40.53981 | -111.10998 | 40262 ft | 418 kts | 213° |
| 2026-04-21 19:03 | 40.49216 | -111.15323 | 40263 ft | 417 kts | 213° |
| 2026-04-21 19:04 | 40.44417 | -111.19668 | 40240 ft | 418 kts | 213° |
| 2026-04-21 19:04 | 40.39643 | -111.23985 | 40223 ft | 418 kts | 213° |
| 2026-04-21 19:05 | 40.34862 | -111.28297 | 40216 ft | 419 kts | 213° |
| 2026-04-21 19:05 | 40.30090 | -111.32597 | 40211 ft | 418 kts | 213° |
| 2026-04-21 19:06 | 40.25287 | -111.36915 | 40207 ft | 418 kts | 213° |
| 2026-04-21 19:06 | 40.20471 | -111.41238 | 40212 ft | 418 kts | 213° |
| 2026-04-21 19:07 | 40.15693 | -111.45520 | 40132 ft | 418 kts | 213° |
| 2026-04-21 19:07 | 40.10881 | -111.49825 | 40109 ft | 418 kts | 213° |
| 2026-04-21 19:08 | 40.06072 | -111.54121 | 40084 ft | 417 kts | 213° |
| 2026-04-21 19:08 | 40.01278 | -111.58392 | 40089 ft | 418 kts | 213° |
| 2026-04-21 19:09 | 39.96481 | -111.62663 | 40098 ft | 418 kts | 213° |
| 2026-04-21 19:09 | 39.91623 | -111.66976 | 40113 ft | 418 kts | 212° |
| 2026-04-21 19:10 | 39.86763 | -111.71285 | 40144 ft | 418 kts | 212° |
| 2026-04-21 19:10 | 39.81943 | -111.75551 | 40151 ft | 418 kts | 212° |
| 2026-04-21 19:11 | 39.77140 | -111.79797 | 40146 ft | 417 kts | 212° |
| 2026-04-21 19:11 | 39.72348 | -111.84024 | 40155 ft | 417 kts | 212° |
| 2026-04-21 19:12 | 39.68360 | -111.87538 | 40150 ft | 417 kts | 212° |
| 2026-04-21 19:12 | 39.62744 | -111.92476 | 40146 ft | 417 kts | 212° |
| 2026-04-21 19:13 | 39.57929 | -111.96702 | 40140 ft | 417 kts | 212° |
| 2026-04-21 19:13 | 39.53138 | -112.00900 | 40128 ft | 417 kts | 212° |
| 2026-04-21 19:14 | 39.48335 | -112.05101 | 40125 ft | 416 kts | 212° |
| 2026-04-21 19:14 | 39.43562 | -112.09268 | 40122 ft | 416 kts | 212° |
| 2026-04-21 19:15 | 39.38737 | -112.13474 | 40133 ft | 416 kts | 212° |
| 2026-04-21 19:15 | 39.33927 | -112.17661 | 40134 ft | 417 kts | 212° |
| 2026-04-21 19:16 | 39.29132 | -112.21827 | 40132 ft | 416 kts | 212° |
| 2026-04-21 19:16 | 39.24322 | -112.25999 | 40140 ft | 416 kts | 212° |
| 2026-04-21 19:17 | 39.17096 | -112.32253 | 40131 ft | 417 kts | 212° |
| 2026-04-21 19:17 | 39.12283 | -112.36410 | 40119 ft | 417 kts | 212° |
| 2026-04-21 19:18 | 39.07433 | -112.40591 | 40105 ft | 417 kts | 212° |
| 2026-04-21 19:18 | 39.02620 | -112.44734 | 40086 ft | 417 kts | 212° |
| 2026-04-21 19:19 | 38.97812 | -112.48866 | 40077 ft | 417 kts | 213° |
| 2026-04-21 19:19 | 38.92968 | -112.53020 | 40074 ft | 417 kts | 213° |
| 2026-04-21 19:20 | 38.88128 | -112.57166 | 40086 ft | 417 kts | 213° |
| 2026-04-21 19:20 | 38.83285 | -112.61307 | 40097 ft | 417 kts | 213° |
| 2026-04-21 19:21 | 38.78526 | -112.65372 | 40109 ft | 417 kts | 212° |
| 2026-04-21 19:21 | 38.73688 | -112.69493 | 40107 ft | 417 kts | 212° |
| 2026-04-21 19:22 | 38.68863 | -112.73596 | 40119 ft | 417 kts | 213° |
| 2026-04-21 19:22 | 38.64039 | -112.77696 | 40109 ft | 417 kts | 213° |
| 2026-04-21 19:23 | 38.59206 | -112.81792 | 40113 ft | 416 kts | 213° |
| 2026-04-21 19:23 | 38.54376 | -112.85884 | 40120 ft | 417 kts | 213° |
| 2026-04-21 19:24 | 38.49547 | -112.89964 | 40110 ft | 417 kts | 213° |
| 2026-04-21 19:24 | 38.44727 | -112.94028 | 40089 ft | 417 kts | 213° |
| 2026-04-21 19:25 | 38.39893 | -112.98099 | 40071 ft | 418 kts | 213° |
| 2026-04-21 19:25 | 38.35050 | -113.02162 | 40072 ft | 417 kts | 212° |
| 2026-04-21 19:26 | 38.30132 | -113.06174 | 40083 ft | 417 kts | 212° |
| 2026-04-21 19:26 | 38.25250 | -113.10136 | 40104 ft | 417 kts | 212° |
| 2026-04-21 19:27 | 38.20385 | -113.14082 | 40124 ft | 417 kts | 213° |
| 2026-04-21 19:27 | 38.15478 | -113.18059 | 40121 ft | 417 kts | 213° |
| 2026-04-21 19:28 | 38.10603 | -113.21999 | 40123 ft | 416 kts | 213° |
| 2026-04-21 19:28 | 38.05730 | -113.25938 | 40128 ft | 418 kts | 213° |
| 2026-04-21 19:29 | 38.00814 | -113.29900 | 40125 ft | 417 kts | 213° |
| 2026-04-21 19:29 | 37.95902 | -113.33855 | 40127 ft | 417 kts | 213° |
| 2026-04-21 19:30 | 37.91039 | -113.37760 | 40120 ft | 416 kts | 213° |
| 2026-04-21 19:30 | 37.86037 | -113.41769 | 40125 ft | 415 kts | 213° |
| 2026-04-21 19:31 | 37.81171 | -113.45654 | 40112 ft | 415 kts | 213° |
| 2026-04-21 19:31 | 37.76284 | -113.49550 | 40124 ft | 415 kts | 213° |
| 2026-04-21 19:32 | 37.71389 | -113.53439 | 40115 ft | 415 kts | 213° |
| 2026-04-21 19:32 | 37.66519 | -113.57304 | 40117 ft | 415 kts | 214° |
| 2026-04-21 19:33 | 37.61631 | -113.61181 | 40126 ft | 413 kts | 213° |
| 2026-04-21 19:33 | 37.56804 | -113.65001 | 40121 ft | 414 kts | 214° |
| 2026-04-21 19:34 | 37.51792 | -113.68961 | 40127 ft | 413 kts | 213° |
| 2026-04-21 19:34 | 37.46922 | -113.72804 | 40120 ft | 413 kts | 213° |
| 2026-04-21 19:35 | 37.39614 | -113.78557 | 40113 ft | 412 kts | 213° |
| 2026-04-21 19:36 | 37.34947 | -113.82221 | 40098 ft | 412 kts | 214° |
| 2026-04-21 19:36 | 37.30093 | -113.86031 | 40088 ft | 411 kts | 213° |
| 2026-04-21 19:37 | 37.25254 | -113.89825 | 40070 ft | 411 kts | 214° |
| 2026-04-21 19:37 | 37.20398 | -113.93624 | 40048 ft | 410 kts | 213° |
| 2026-04-21 19:38 | 37.15559 | -113.97401 | 40023 ft | 410 kts | 213° |
| 2026-04-21 19:38 | 37.11541 | -114.00537 | 39996 ft | 408 kts | 214° |
| 2026-04-21 19:39 | 37.05932 | -114.04899 | 39977 ft | 407 kts | 214° |
| 2026-04-21 19:39 | 37.01118 | -114.08645 | 39960 ft | 407 kts | 214° |
| 2026-04-21 19:40 | 36.96311 | -114.12375 | 39963 ft | 408 kts | 214° |
| 2026-04-21 19:40 | 36.91472 | -114.16125 | 39949 ft | 408 kts | 214° |
| 2026-04-21 19:41 | 36.86576 | -114.19916 | 39948 ft | 408 kts | 214° |
| 2026-04-21 19:41 | 36.81714 | -114.23669 | 39935 ft | 408 kts | 214° |
| 2026-04-21 19:42 | 36.76894 | -114.27386 | 39927 ft | 408 kts | 214° |
| 2026-04-21 19:42 | 36.72049 | -114.31096 | 39930 ft | 409 kts | 214° |
| 2026-04-21 19:43 | 36.67210 | -114.34784 | 39920 ft | 408 kts | 214° |
| 2026-04-21 19:43 | 36.62332 | -114.38487 | 39915 ft | 409 kts | 214° |
| 2026-04-21 19:44 | 36.57475 | -114.42166 | 39935 ft | 409 kts | 215° |
| 2026-04-21 19:44 | 36.52642 | -114.45829 | 39922 ft | 408 kts | 215° |
| 2026-04-21 19:45 | 36.47772 | -114.49510 | 39921 ft | 409 kts | 215° |
| 2026-04-21 19:45 | 36.42932 | -114.53203 | 39921 ft | 409 kts | 216° |
| 2026-04-21 19:46 | 36.38126 | -114.56916 | 39930 ft | 410 kts | 216° |
| 2026-04-21 19:46 | 36.33260 | -114.60661 | 39938 ft | 409 kts | 215° |
| 2026-04-21 19:47 | 36.28419 | -114.64374 | 39943 ft | 410 kts | 216° |
| 2026-04-21 19:47 | 36.23488 | -114.68147 | 39951 ft | 410 kts | 215° |
| 2026-04-21 19:48 | 36.18632 | -114.71862 | 39951 ft | 409 kts | 215° |
| 2026-04-21 19:48 | 36.13795 | -114.75552 | 39946 ft | 409 kts | 215° |
| 2026-04-21 19:49 | 36.08947 | -114.79247 | 39943 ft | 409 kts | 215° |
| 2026-04-21 19:49 | 36.04104 | -114.82924 | 39941 ft | 410 kts | 214° |
| 2026-04-21 19:50 | 35.99934 | -114.85717 | 39935 ft | 411 kts | 210° |
| 2026-04-21 19:50 | 35.93723 | -114.88964 | 39939 ft | 415 kts | 205° |
| 2026-04-21 19:51 | 35.88273 | -114.91398 | 39946 ft | 415 kts | 205° |
| 2026-04-21 19:51 | 35.82735 | -114.93871 | 39944 ft | 415 kts | 204° |
| 2026-04-21 19:52 | 35.77287 | -114.96290 | 39941 ft | 416 kts | 205° |
| 2026-04-21 19:52 | 35.71862 | -114.98693 | 39941 ft | 414 kts | 205° |
| 2026-04-21 19:53 | 35.66428 | -115.01093 | 39955 ft | 416 kts | 205° |
| 2026-04-21 19:53 | 35.60963 | -115.03507 | 39976 ft | 417 kts | 205° |
| 2026-04-21 19:54 | 35.55686 | -115.06308 | 39983 ft | 411 kts | 212° |
| 2026-04-21 19:54 | 35.50781 | -115.09897 | 39994 ft | 408 kts | 218° |
| 2026-04-21 19:55 | 35.46354 | -115.14162 | 40007 ft | 405 kts | 224° |
| 2026-04-21 19:55 | 35.42385 | -115.19028 | 40008 ft | 403 kts | 229° |
| 2026-04-21 19:56 | 35.38522 | -115.24036 | 40012 ft | 403 kts | 229° |
| 2026-04-21 19:56 | 35.34703 | -115.29002 | 40011 ft | 403 kts | 229° |
| 2026-04-21 19:57 | 35.30871 | -115.33980 | 40014 ft | 402 kts | 229° |
| 2026-04-21 19:57 | 35.27029 | -115.38966 | 40024 ft | 401 kts | 229° |
| 2026-04-21 19:58 | 35.23212 | -115.43914 | 40023 ft | 401 kts | 229° |
| 2026-04-21 19:58 | 35.19386 | -115.48871 | 40025 ft | 401 kts | 229° |
| 2026-04-21 19:59 | 35.15569 | -115.53802 | 40017 ft | 401 kts | 229° |
| 2026-04-21 19:59 | 35.11727 | -115.58764 | 40011 ft | 401 kts | 229° |
| 2026-04-21 20:00 | 35.07896 | -115.63672 | 40001 ft | 401 kts | 229° |
| 2026-04-21 20:00 | 35.03990 | -115.68663 | 39990 ft | 400 kts | 228° |
| 2026-04-21 20:01 | 35.00123 | -115.73598 | 39867 ft | 401 kts | 229° |
| 2026-04-21 20:01 | 34.98198 | -115.76049 | 39559 ft | 399 kts | 229° |
| 2026-04-21 20:01 | 34.96278 | -115.78495 | 39172 ft | 395 kts | 228° |
| 2026-04-21 20:01 | 34.94401 | -115.80887 | 38767 ft | 391 kts | 229° |
| 2026-04-21 20:02 | 34.93146 | -115.82485 | 38487 ft | 388 kts | 229° |
| 2026-04-21 20:02 | 34.90658 | -115.85651 | 37924 ft | 387 kts | 228° |
| 2026-04-21 20:02 | 34.88782 | -115.88035 | 37479 ft | 386 kts | 228° |
| 2026-04-21 20:02 | 34.86890 | -115.90434 | 37036 ft | 385 kts | 228° |
| 2026-04-21 20:03 | 34.85013 | -115.92815 | 36597 ft | 385 kts | 229° |
| 2026-04-21 20:03 | 34.83147 | -115.95179 | 36124 ft | 387 kts | 229° |
| 2026-04-21 20:03 | 34.81281 | -115.97540 | 35537 ft | 388 kts | 229° |
| 2026-04-21 20:03 | 34.79419 | -115.99899 | 34872 ft | 389 kts | 229° |
| 2026-04-21 20:04 | 34.77568 | -116.02244 | 34301 ft | 387 kts | 229° |
| 2026-04-21 20:04 | 34.75696 | -116.04627 | 33703 ft | 387 kts | 228° |
| 2026-04-21 20:04 | 34.73838 | -116.07001 | 33126 ft | 386 kts | 228° |
| 2026-04-21 20:04 | 34.72000 | -116.09347 | 32590 ft | 385 kts | 227° |
| 2026-04-21 20:05 | 34.70152 | -116.11704 | 32063 ft | 384 kts | 228° |
| 2026-04-21 20:05 | 34.68305 | -116.14056 | 31541 ft | 383 kts | 227° |
| 2026-04-21 20:05 | 34.66478 | -116.16387 | 31009 ft | 382 kts | 227° |
| 2026-04-21 20:05 | 34.64628 | -116.18737 | 30470 ft | 382 kts | 226° |
| 2026-04-21 20:06 | 34.62794 | -116.21061 | 29929 ft | 381 kts | 227° |
| 2026-04-21 20:06 | 34.60980 | -116.23364 | 29377 ft | 381 kts | 226° |
| 2026-04-21 20:06 | 34.59135 | -116.25698 | 28835 ft | 380 kts | 226° |
| 2026-04-21 20:06 | 34.57332 | -116.27977 | 28499 ft | 376 kts | 226° |
| 2026-04-21 20:07 | 34.55512 | -116.30276 | 28156 ft | 374 kts | 226° |
| 2026-04-21 20:07 | 34.53718 | -116.32544 | 27809 ft | 372 kts | 226° |
| 2026-04-21 20:07 | 34.52533 | -116.34042 | 27566 ft | 370 kts | 226° |
| 2026-04-21 20:07 | 34.50154 | -116.37045 | 27082 ft | 367 kts | 226° |
| 2026-04-21 20:08 | 34.48389 | -116.39271 | 26732 ft | 365 kts | 226° |
| 2026-04-21 20:08 | 34.46631 | -116.41493 | 26384 ft | 363 kts | 226° |
| 2026-04-21 20:08 | 34.44878 | -116.43701 | 26042 ft | 362 kts | 227° |
| 2026-04-21 20:08 | 34.43230 | -116.45988 | 25690 ft | 361 kts | 231° |
| 2026-04-21 20:09 | 34.41742 | -116.48434 | 25330 ft | 359 kts | 235° |
| 2026-04-21 20:09 | 34.40424 | -116.51007 | 24941 ft | 359 kts | 239° |
| 2026-04-21 20:09 | 34.39262 | -116.53702 | 24550 ft | 357 kts | 241° |
| 2026-04-21 20:09 | 34.38158 | -116.56355 | 24197 ft | 354 kts | 241° |
| 2026-04-21 20:10 | 34.37067 | -116.58984 | 24064 ft | 342 kts | 241° |
| 2026-04-21 20:10 | 34.36029 | -116.61497 | 24068 ft | 328 kts | 241° |
| 2026-04-21 20:10 | 34.35025 | -116.63925 | 24063 ft | 315 kts | 241° |
| 2026-04-21 20:10 | 34.34027 | -116.66331 | 24077 ft | 328 kts | 241° |
| 2026-04-21 20:11 | 34.32978 | -116.68882 | 24101 ft | 341 kts | 241° |
| 2026-04-21 20:11 | 34.31939 | -116.71468 | 23828 ft | 346 kts | 242° |
| 2026-04-21 20:11 | 34.30891 | -116.74085 | 23566 ft | 341 kts | 242° |
| 2026-04-21 20:11 | 34.29872 | -116.76634 | 23159 ft | 339 kts | 241° |
| 2026-04-21 20:12 | 34.28843 | -116.79197 | 22693 ft | 338 kts | 242° |
| 2026-04-21 20:12 | 34.27817 | -116.81745 | 22254 ft | 336 kts | 242° |
| 2026-04-21 20:12 | 34.27135 | -116.83436 | 21962 ft | 335 kts | 242° |
| 2026-04-21 20:12 | 34.25780 | -116.86789 | 21388 ft | 333 kts | 241° |
| 2026-04-21 20:13 | 34.24764 | -116.89310 | 20969 ft | 331 kts | 242° |
| 2026-04-21 20:13 | 34.23760 | -116.91788 | 20571 ft | 329 kts | 242° |
| 2026-04-21 20:13 | 34.22764 | -116.94249 | 20168 ft | 327 kts | 242° |
| 2026-04-21 20:13 | 34.21777 | -116.96738 | 19756 ft | 325 kts | 243° |
| 2026-04-21 20:14 | 34.20925 | -116.99249 | 19317 ft | 326 kts | 246° |
| 2026-04-21 20:14 | 34.20192 | -117.01833 | 18921 ft | 324 kts | 248° |
| 2026-04-21 20:14 | 34.19492 | -117.04398 | 18503 ft | 322 kts | 248° |
| 2026-04-21 20:14 | 34.18796 | -117.06951 | 18151 ft | 320 kts | 249° |
| 2026-04-21 20:15 | 34.18102 | -117.09502 | 17851 ft | 320 kts | 249° |
| 2026-04-21 20:15 | 34.17407 | -117.12069 | 17533 ft | 319 kts | 249° |
| 2026-04-21 20:15 | 34.16717 | -117.14614 | 17230 ft | 318 kts | 249° |
| 2026-04-21 20:15 | 34.16036 | -117.17109 | 16871 ft | 317 kts | 249° |
| 2026-04-21 20:16 | 34.15335 | -117.19663 | 16536 ft | 316 kts | 249° |
| 2026-04-21 20:16 | 34.14645 | -117.22174 | 16227 ft | 314 kts | 249° |
| 2026-04-21 20:16 | 34.13956 | -117.24680 | 15858 ft | 314 kts | 248° |
| 2026-04-21 20:16 | 34.13274 | -117.27155 | 15491 ft | 312 kts | 248° |
| 2026-04-21 20:17 | 34.12585 | -117.29649 | 15151 ft | 310 kts | 248° |
| 2026-04-21 20:17 | 34.11911 | -117.32083 | 14796 ft | 309 kts | 249° |
| 2026-04-21 20:17 | 34.11231 | -117.34545 | 14497 ft | 304 kts | 248° |
| 2026-04-21 20:17 | 34.10577 | -117.36921 | 14250 ft | 298 kts | 248° |
| 2026-04-21 20:18 | 34.10158 | -117.38510 | 14012 ft | 298 kts | 249° |
| 2026-04-21 20:18 | 34.09363 | -117.41695 | 13627 ft | 293 kts | 250° |
| 2026-04-21 20:18 | 34.08781 | -117.44044 | 13287 ft | 291 kts | 250° |
| 2026-04-21 20:18 | 34.08203 | -117.46362 | 12899 ft | 291 kts | 250° |
| 2026-04-21 20:19 | 34.07615 | -117.48698 | 12547 ft | 289 kts | 249° |
| 2026-04-21 20:19 | 34.06922 | -117.50963 | 12189 ft | 287 kts | 245° |
| 2026-04-21 20:19 | 34.06130 | -117.53189 | 11802 ft | 287 kts | 244° |
| 2026-04-21 20:19 | 34.05333 | -117.55412 | 11433 ft | 286 kts | 244° |
| 2026-04-21 20:20 | 34.04549 | -117.57589 | 11170 ft | 283 kts | 244° |
| 2026-04-21 20:20 | 34.03764 | -117.59768 | 10921 ft | 285 kts | 244° |
| 2026-04-21 20:20 | 34.02961 | -117.61995 | 10700 ft | 286 kts | 244° |
| 2026-04-21 20:20 | 34.02177 | -117.64175 | 10468 ft | 283 kts | 244° |
| 2026-04-21 20:21 | 34.01392 | -117.66351 | 10230 ft | 278 kts | 244° |
| 2026-04-21 20:21 | 34.00765 | -117.68541 | 9993 ft | 276 kts | 253° |
| 2026-04-21 20:21 | 34.00443 | -117.70820 | 9781 ft | 273 kts | 258° |
| 2026-04-21 20:21 | 34.00219 | -117.73095 | 9555 ft | 270 kts | 259° |
| 2026-04-21 20:22 | 34.00010 | -117.75302 | 9349 ft | 266 kts | 259° |
| 2026-04-21 20:22 | 33.99587 | -117.79694 | 8856 ft | 261 kts | 259° |
| 2026-04-21 20:22 | 33.99373 | -117.81885 | 8570 ft | 261 kts | 259° |
| 2026-04-21 20:23 | 33.99162 | -117.84042 | 8298 ft | 260 kts | 259° |
| 2026-04-21 20:23 | 33.98949 | -117.86213 | 7997 ft | 261 kts | 260° |
| 2026-04-21 20:23 | 33.98741 | -117.88351 | 7708 ft | 258 kts | 260° |
| 2026-04-21 20:23 | 33.98537 | -117.90480 | 7302 ft | 250 kts | 260° |
| 2026-04-21 20:24 | 33.98334 | -117.92556 | 6908 ft | 244 kts | 260° |
| 2026-04-21 20:24 | 33.98225 | -117.94558 | 6547 ft | 243 kts | 264° |
| 2026-04-21 20:24 | 33.98146 | -117.96621 | 6190 ft | 247 kts | 264° |
| 2026-04-21 20:24 | 33.98027 | -117.98684 | 5901 ft | 248 kts | 263° |
| 2026-04-21 20:25 | 33.97870 | -118.00734 | 5667 ft | 247 kts | 262° |
| 2026-04-21 20:25 | 33.97684 | -118.02795 | 5386 ft | 241 kts | 261° |
| 2026-04-21 20:25 | 33.97488 | -118.04762 | 5173 ft | 229 kts | 261° |
| 2026-04-21 20:25 | 33.97292 | -118.06622 | 5015 ft | 223 kts | 261° |
| 2026-04-21 20:26 | 33.97092 | -118.08467 | 4844 ft | 221 kts | 261° |
| 2026-04-21 20:26 | 33.96891 | -118.10307 | 4562 ft | 223 kts | 260° |
| 2026-04-21 20:26 | 33.96688 | -118.12174 | 4231 ft | 221 kts | 261° |
| 2026-04-21 20:26 | 33.96495 | -118.13967 | 3946 ft | 213 kts | 261° |
| 2026-04-21 20:27 | 33.96308 | -118.15717 | 3686 ft | 206 kts | 260° |
| 2026-04-21 20:27 | 33.96131 | -118.17384 | 3446 ft | 197 kts | 260° |
| 2026-04-21 20:27 | 33.95960 | -118.18996 | 3221 ft | 189 kts | 261° |
| 2026-04-21 20:27 | 33.95798 | -118.20519 | 2996 ft | 181 kts | 261° |
| 2026-04-21 20:28 | 33.95643 | -118.21994 | 2757 ft | 173 kts | 261° |
| 2026-04-21 20:28 | 33.95494 | -118.23409 | 2510 ft | 167 kts | 261° |
| 2026-04-21 20:28 | 33.95345 | -118.24748 | 2283 ft | 160 kts | 260° |
| 2026-04-21 20:28 | 33.95209 | -118.26074 | 2065 ft | 154 kts | 261° |
| 2026-04-21 20:29 | 33.95089 | -118.27319 | 1866 ft | 148 kts | 262° |
| 2026-04-21 20:29 | 33.94973 | -118.28536 | 1673 ft | 146 kts | 261° |
| 2026-04-21 20:29 | 33.94845 | -118.29747 | 1516 ft | 146 kts | 261° |
| 2026-04-21 20:29 | 33.94712 | -118.30966 | 1335 ft | 146 kts | 261° |
| 2026-04-21 20:30 | 33.94593 | -118.32168 | 1137 ft | 145 kts | 262° |
| 2026-04-21 20:30 | 33.94474 | -118.33385 | 950 ft | 145 kts | 261° |
| 2026-04-21 20:30 | 33.94344 | -118.34593 | 742 ft | 144 kts | 261° |
| 2026-04-21 20:30 | 33.94217 | -118.35794 | 552 ft | 144 kts | 262° |
| 2026-04-21 20:31 | 33.94093 | -118.36989 | 355 ft | 143 kts | 262° |
| 2026-04-21 20:31 | 33.93969 | -118.38174 | 157 ft | 143 kts | 262° |
| 2026-04-21 20:31 | 33.93850 | -118.39309 | 120 ft | 116 kts | 262° |
| 2026-04-21 20:31 | 33.93776 | -118.40057 | 129 ft | 63 kts | 264° |
| 2026-04-21 20:32 | 33.93744 | -118.40422 | 136 ft | 31 kts | 272° |
| 2026-04-21 20:32 | 33.93795 | -118.40597 | 141 ft | 15 kts | 300° |
| 2026-04-21 20:32 | 33.93805 | -118.40707 | 143 ft | 13 kts | 265° |
| 2026-04-21 20:32 | 33.93795 | -118.40819 | 144 ft | 13 kts | 264° |
| 2026-04-21 20:33 | 33.93783 | -118.40936 | 144 ft | 14 kts | 263° |
| 2026-04-21 20:33 | 33.93768 | -118.41065 | 143 ft | 15 kts | 264° |
| 2026-04-21 20:33 | 33.93757 | -118.41190 | 142 ft | 12 kts | 268° |
| 2026-04-21 20:33 | 33.93801 | -118.41254 | 141 ft | 11 kts | 345° |
| 2026-04-21 20:34 | 33.93887 | -118.41267 | 138 ft | 14 kts | 354° |
| 2026-04-21 20:34 | 33.93998 | -118.41283 | 136 ft | 16 kts | 353° |
| 2026-04-21 20:34 | 33.94112 | -118.41300 | 136 ft | 15 kts | 353° |
| 2026-04-21 20:34 | 33.94218 | -118.41316 | 136 ft | 14 kts | 353° |
| 2026-04-21 20:35 | 33.94324 | -118.41331 | 134 ft | 15 kts | 353° |
| 2026-04-21 20:35 | 33.94414 | -118.41349 | 135 ft | 8 kts | 349° |
| 2026-04-21 20:35 | 33.94441 | -118.41383 | 135 ft | 5 kts | 287° |
| 2026-04-21 20:35 | 33.94441 | -118.41431 | 135 ft | 5 kts | 262° |
| 2026-04-21 20:36 | 33.94438 | -118.41457 | 136 ft | 0 kts | 262° |